createdAt,value
2023-05-10T04:01:26.537Z,98890.25
2023-05-10T04:05:29.244Z,98882.25
2023-05-10T04:09:31.880Z,98880.13
2023-05-10T04:13:34.378Z,98889.41
2023-05-10T04:17:38.655Z,98885.88
2023-05-10T04:21:41.241Z,98893.53
2023-05-10T04:25:43.745Z,98892.72
2023-05-10T04:29:46.255Z,98892.78
2023-05-10T04:33:50.820Z,98889.72
2023-05-10T04:37:53.345Z,98892.28
2023-05-10T04:41:58.197Z,98895.91
2023-05-10T04:46:00.956Z,98898.03
2023-05-10T04:50:05.785Z,98907.25
2023-05-10T04:54:08.380Z,98913.44
2023-05-10T04:58:10.905Z,98911.63
2023-05-10T05:02:13.420Z,98913.28
2023-05-10T05:06:17.239Z,98912.63
2023-05-10T05:10:20.252Z,98918.13
2023-05-10T05:14:22.857Z,98923.22
2023-05-10T05:18:25.363Z,98929.06
2023-05-10T05:22:29.356Z,98934.03
2023-05-10T05:26:39.683Z,98945.13
2023-05-10T05:30:42.565Z,98950.97
2023-05-10T05:34:46.421Z,98957.72
2023-05-10T05:38:48.915Z,98960.16
2023-05-10T05:42:52.762Z,98968.69
2023-05-10T05:46:55.255Z,98977.09
2023-05-10T05:50:58.399Z,98980.53
2023-05-10T05:55:01.166Z,98988.78
2023-05-10T05:59:05.006Z,98994.56
2023-05-10T06:03:07.990Z,99001.06
2023-05-10T06:07:10.680Z,99011.59
2023-05-10T06:11:13.163Z,99017.31
2023-05-10T06:15:17.772Z,99017.03
2023-05-10T06:19:20.441Z,99025.78
2023-05-10T06:23:23.202Z,99026.78
2023-05-10T06:27:25.709Z,99032.03
2023-05-10T06:31:29.565Z,99027.84
2023-05-10T06:35:34.257Z,99027.75
2023-05-10T06:39:36.753Z,99035.66
2023-05-10T06:43:40.888Z,99035.16
2023-05-10T06:47:45.365Z,99034.00
2023-05-10T06:51:48.057Z,99039.81
2023-05-10T06:55:51.293Z,99047.88
2023-05-10T06:59:54.089Z,99049.44
2023-05-10T07:03:57.945Z,99051.41
2023-05-10T07:08:00.788Z,99056.91
2023-05-10T07:12:03.600Z,99061.81
2023-05-10T07:16:07.360Z,99056.91
2023-05-10T07:20:12.192Z,99066.38
2023-05-10T07:24:14.742Z,99066.81
2023-05-10T07:28:18.075Z,99071.06
2023-05-10T07:32:20.528Z,99072.00
2023-05-10T07:36:24.424Z,99079.38
2023-05-10T07:40:26.980Z,99086.28
2023-05-10T07:44:29.422Z,99087.00
2023-05-10T07:48:32.207Z,99090.34
2023-05-10T07:52:36.035Z,99092.50
2023-05-10T07:56:38.863Z,99095.47
2023-05-10T08:00:42.166Z,99097.47
2023-05-10T08:04:44.707Z,99096.56
2023-05-10T08:08:51.116Z,99104.38
2023-05-10T08:12:53.659Z,99106.81
2023-05-10T08:16:56.348Z,99113.38
2023-05-10T08:20:58.828Z,99117.03
2023-05-10T08:25:02.712Z,99119.88
2023-05-10T08:29:05.290Z,99123.63
2023-05-10T08:33:07.830Z,99124.47
2023-05-10T08:37:11.425Z,99136.03
2023-05-10T08:41:15.663Z,99142.75
2023-05-10T08:45:20.300Z,99144.53
2023-05-10T08:49:23.685Z,99146.28
2023-05-10T08:53:26.838Z,99150.22
2023-05-10T08:57:30.803Z,99158.66
2023-05-10T09:01:34.323Z,99157.09
2023-05-10T09:05:38.298Z,99166.94
2023-05-10T09:09:41.042Z,99175.97
2023-05-10T09:13:45.445Z,99180.19
2023-05-10T09:17:49.042Z,99189.22
2023-05-10T09:21:51.653Z,99186.09
2023-05-10T09:26:04.781Z,99185.53
2023-05-10T09:30:11.277Z,99189.91
2023-05-10T09:34:18.843Z,99190.38
2023-05-10T09:38:21.328Z,99185.19
2023-05-10T09:42:25.038Z,99191.97
2023-05-10T09:46:29.019Z,99194.84
2023-05-10T09:50:32.170Z,99207.91
2023-05-10T09:54:35.388Z,99203.13
2023-05-10T09:58:38.918Z,99207.28
2023-05-10T10:02:42.997Z,99207.09
2023-05-10T10:06:46.032Z,99208.72
2023-05-10T10:10:48.846Z,99217.53
2023-05-10T10:14:51.913Z,99212.47
2023-05-10T10:18:56.263Z,99215.13
2023-05-10T10:22:58.860Z,99220.31
2023-05-10T10:27:10.881Z,99224.19
2023-05-10T10:31:23.135Z,99227.06
2023-05-10T10:35:27.179Z,99235.34
2023-05-10T10:39:30.125Z,99236.69
2023-05-10T10:43:32.672Z,99248.28
2023-05-10T10:47:35.931Z,99239.91
2023-05-10T10:51:40.805Z,99247.41
2023-05-10T10:55:50.164Z,99243.22
2023-05-10T10:59:52.714Z,99247.19
2023-05-10T11:04:20.203Z,99238.34
2023-05-10T11:08:29.611Z,99247.41
2023-05-10T11:12:32.146Z,99245.47
2023-05-10T11:16:43.352Z,99239.47
2023-05-10T11:20:47.656Z,99241.19
2023-05-10T11:25:00.165Z,99243.59
2023-05-10T11:29:05.407Z,99241.97
2023-05-10T11:33:08.431Z,99249.38
2023-05-10T11:37:10.860Z,99244.88
2023-05-10T11:41:16.497Z,99241.03
2023-05-10T11:45:19.309Z,99247.47
2023-05-10T11:49:24.890Z,99249.50
2023-05-10T11:53:28.136Z,99240.25
2023-05-10T11:57:32.523Z,99244.91
2023-05-10T12:01:35.463Z,99245.53
2023-05-10T12:05:38.029Z,99244.72
2023-05-10T12:09:44.863Z,99244.06
2023-05-10T12:13:49.638Z,99251.44
2023-05-10T12:17:53.039Z,99249.19
2023-05-10T12:21:55.819Z,99262.41
2023-05-10T12:26:04.273Z,99268.63
2023-05-10T12:30:09.669Z,99273.22
2023-05-10T12:34:12.231Z,99277.56
2023-05-10T12:38:29.809Z,99292.28
2023-05-10T12:42:32.609Z,99295.31
2023-05-10T12:46:36.619Z,99292.06
2023-05-10T12:50:39.170Z,99287.69
2023-05-10T12:54:41.776Z,99291.78
2023-05-10T12:58:48.826Z,99301.06
2023-05-10T13:02:53.091Z,99295.59
2023-05-10T13:06:57.058Z,99297.00
2023-05-10T13:10:59.614Z,99301.31
2023-05-10T13:15:02.193Z,99302.31
2023-05-10T13:19:06.089Z,99300.94
2023-05-10T13:23:08.644Z,99295.56
2023-05-10T13:27:11.227Z,99303.38
2023-05-10T13:31:13.908Z,99301.28
2023-05-10T13:35:17.811Z,99301.34
2023-05-10T13:39:20.396Z,99296.84
2023-05-10T13:43:22.933Z,99293.06
2023-05-10T13:47:25.558Z,99294.59
2023-05-10T13:51:29.439Z,99295.53
2023-05-10T13:55:32.001Z,99289.72
2023-05-10T13:59:34.865Z,99295.59
2023-05-10T14:03:37.974Z,99288.84
2023-05-10T14:07:42.141Z,99283.59
2023-05-10T14:11:45.906Z,99279.19
2023-05-10T14:15:48.435Z,99290.34
2023-05-10T14:19:50.934Z,99282.97
2023-05-10T14:23:56.479Z,99280.28
2023-05-10T14:27:59.033Z,99282.69
2023-05-10T14:32:01.718Z,99280.28
2023-05-10T14:36:05.020Z,99281.47
2023-05-10T14:40:10.725Z,99277.59
2023-05-10T14:44:13.250Z,99275.97
2023-05-10T14:48:18.299Z,99283.97
2023-05-10T14:52:20.865Z,99280.28
2023-05-10T14:56:24.888Z,99289.44
2023-05-10T15:00:27.460Z,99286.91
2023-05-10T15:04:30.553Z,99295.91
2023-05-10T15:08:33.651Z,99298.53
2023-05-10T15:12:37.547Z,99294.34
2023-05-10T15:16:40.062Z,99295.75
2023-05-10T15:20:42.679Z,99294.66
2023-05-10T15:24:45.302Z,99296.72
2023-05-10T15:28:49.146Z,99290.19
2023-05-10T15:32:51.957Z,99294.34
2023-05-10T15:36:54.402Z,99295.47
2023-05-10T15:40:58.508Z,99292.94
2023-05-10T15:45:02.414Z,99306.28
2023-05-10T15:49:05.103Z,99309.66
2023-05-10T15:53:07.680Z,99313.69
2023-05-10T15:57:10.437Z,99315.53
2023-05-10T16:01:14.407Z,99318.91
2023-05-10T16:05:17.201Z,99320.75
2023-05-10T16:09:19.768Z,99326.59
2023-05-10T16:13:22.395Z,99336.00
2023-05-10T16:17:26.677Z,99346.31
2023-05-10T16:21:32.202Z,99354.22
2023-05-10T16:25:34.932Z,99357.97
2023-05-10T16:29:37.517Z,99356.84
2023-05-10T16:33:41.401Z,99367.16
2023-05-10T16:37:43.995Z,99371.28
2023-05-10T16:41:46.605Z,99382.19
2023-05-10T16:45:49.178Z,99377.25
2023-05-10T16:49:53.087Z,99373.09
2023-05-10T16:53:55.983Z,99380.41
2023-05-10T16:58:00.777Z,99389.66
2023-05-10T17:02:03.340Z,99383.59
2023-05-10T17:06:08.070Z,99395.00
2023-05-10T17:10:11.677Z,99390.41
2023-05-10T17:14:14.199Z,99393.16
2023-05-10T17:18:17.299Z,99391.53
2023-05-10T17:22:21.070Z,99392.06
2023-05-10T17:26:23.526Z,99401.28
2023-05-10T17:30:28.688Z,99400.06
2023-05-10T17:34:31.428Z,99410.81
2023-05-10T17:38:37.012Z,99401.38
2023-05-10T17:42:39.680Z,99406.06
2023-05-10T17:46:42.262Z,99408.22
2023-05-10T17:50:44.948Z,99410.53
2023-05-10T17:54:48.893Z,99410.50
2023-05-10T17:58:51.416Z,99418.88
2023-05-10T18:02:54.019Z,99424.47
2023-05-10T18:07:01.380Z,99426.00
2023-05-10T18:11:05.359Z,99426.00
2023-05-10T18:15:08.951Z,99430.44
2023-05-10T18:19:11.538Z,99433.06
2023-05-10T18:23:16.210Z,99432.06
2023-05-10T18:27:20.339Z,99433.59
2023-05-10T18:31:22.939Z,99436.47
2023-05-10T18:35:26.597Z,99447.72
2023-05-10T18:39:29.180Z,99444.47
2023-05-10T18:43:34.059Z,99456.03
2023-05-10T18:47:36.719Z,99454.81
2023-05-10T18:51:39.342Z,99466.88
2023-05-10T18:55:42.136Z,99462.88
2023-05-10T18:59:46.492Z,99467.44
2023-05-10T19:03:49.070Z,99476.94
2023-05-10T19:07:51.612Z,99482.53
2023-05-10T19:11:54.123Z,99487.16
2023-05-10T19:16:12.566Z,99483.50
2023-05-10T19:20:15.460Z,99481.25
2023-05-10T19:24:19.529Z,99490.03
2023-05-10T19:28:22.097Z,99499.44
2023-05-10T19:32:25.995Z,99487.28
2023-05-10T19:36:28.540Z,99494.19
2023-05-10T19:40:31.188Z,99493.59
2023-05-10T19:44:33.735Z,99499.63
2023-05-10T19:48:37.566Z,99499.34
2023-05-10T19:52:40.213Z,99494.56
2023-05-10T19:56:42.828Z,99506.78
2023-05-10T20:00:45.434Z,99500.63
2023-05-10T20:04:49.900Z,99500.38
2023-05-10T20:08:52.425Z,99502.31
2023-05-10T20:12:54.958Z,99496.09
2023-05-10T20:16:57.567Z,99498.09
2023-05-10T20:21:01.972Z,99510.63
2023-05-10T20:25:04.962Z,99502.25
2023-05-10T20:29:07.474Z,99505.91
2023-05-10T20:33:10.046Z,99504.38
2023-05-10T20:37:14.537Z,99499.88
2023-05-10T20:41:17.063Z,99497.06
2023-05-10T20:45:19.540Z,99508.19
2023-05-10T20:49:22.127Z,99507.47
2023-05-10T20:53:25.978Z,99495.53
2023-05-10T20:57:28.452Z,99492.78
